sensor_id;sensor_type;location;lat;lon;timestamp;P1;durP1;ratioP1;P2;durP2;ratioP2
57325;SDS011;43161;50.950;18.224;2023-04-28T00:00:43;23.70;;;11.50;;
57325;SDS011;43161;50.950;18.224;2023-04-28T00:03:12;25.00;;;11.80;;
57325;SDS011;43161;50.950;18.224;2023-04-28T00:05:38;22.10;;;11.30;;
57325;SDS011;43161;50.950;18.224;2023-04-28T00:08:03;22.40;;;10.60;;
57325;SDS011;43161;50.950;18.224;2023-04-28T00:10:30;24.10;;;11.10;;
57325;SDS011;43161;50.950;18.224;2023-04-28T00:12:55;22.50;;;10.50;;
57325;SDS011;43161;50.950;18.224;2023-04-28T00:15:21;21.50;;;9.50;;
57325;SDS011;43161;50.950;18.224;2023-04-28T00:17:47;20.20;;;10.10;;
57325;SDS011;43161;50.950;18.224;2023-04-28T00:20:13;20.30;;;10.60;;
57325;SDS011;43161;50.950;18.224;2023-04-28T00:22:39;22.60;;;10.90;;
57325;SDS011;43161;50.950;18.224;2023-04-28T00:25:05;19.60;;;9.90;;
57325;SDS011;43161;50.950;18.224;2023-04-28T00:27:32;22.40;;;10.60;;
57325;SDS011;43161;50.950;18.224;2023-04-28T00:29:58;24.10;;;11.00;;
57325;SDS011;43161;50.950;18.224;2023-04-28T00:32:24;21.90;;;11.50;;
57325;SDS011;43161;50.950;18.224;2023-04-28T00:34:49;22.20;;;10.90;;
57325;SDS011;43161;50.950;18.224;2023-04-28T00:37:16;25.40;;;11.30;;
57325;SDS011;43161;50.950;18.224;2023-04-28T00:39:41;24.10;;;11.30;;
57325;SDS011;43161;50.950;18.224;2023-04-28T00:42:12;22.80;;;11.10;;
57325;SDS011;43161;50.950;18.224;2023-04-28T00:44:38;24.40;;;11.30;;
57325;SDS011;43161;50.950;18.224;2023-04-28T00:47:05;25.60;;;11.60;;
57325;SDS011;43161;50.950;18.224;2023-04-28T00:49:30;24.20;;;11.70;;
57325;SDS011;43161;50.950;18.224;2023-04-28T00:52:00;20.30;;;10.40;;
57325;SDS011;43161;50.950;18.224;2023-04-28T00:54:29;22.80;;;10.20;;
57325;SDS011;43161;50.950;18.224;2023-04-28T00:56:55;19.90;;;9.50;;
57325;SDS011;43161;50.950;18.224;2023-04-28T00:59:22;19.30;;;9.70;;
57325;SDS011;43161;50.950;18.224;2023-04-28T01:01:48;19.70;;;10.00;;
57325;SDS011;43161;50.950;18.224;2023-04-28T01:04:16;19.00;;;8.70;;
57325;SDS011;43161;50.950;18.224;2023-04-28T01:06:42;21.00;;;11.30;;
57325;SDS011;43161;50.950;18.224;2023-04-28T01:09:08;21.60;;;9.80;;
57325;SDS011;43161;50.950;18.224;2023-04-28T01:11:34;19.10;;;9.40;;
57325;SDS011;43161;50.950;18.224;2023-04-28T01:13:59;18.00;;;8.90;;
57325;SDS011;43161;50.950;18.224;2023-04-28T01:16:25;19.70;;;8.40;;
57325;SDS011;43161;50.950;18.224;2023-04-28T01:18:51;17.60;;;8.30;;
57325;SDS011;43161;50.950;18.224;2023-04-28T01:23:59;18.00;;;7.60;;
57325;SDS011;43161;50.950;18.224;2023-04-28T01:26:25;16.70;;;8.10;;
57325;SDS011;43161;50.950;18.224;2023-04-28T01:28:51;19.00;;;8.60;;
57325;SDS011;43161;50.950;18.224;2023-04-28T01:31:17;20.40;;;8.70;;
57325;SDS011;43161;50.950;18.224;2023-04-28T01:33:43;19.80;;;9.00;;
57325;SDS011;43161;50.950;18.224;2023-04-28T01:36:09;17.90;;;8.90;;
57325;SDS011;43161;50.950;18.224;2023-04-28T01:38:34;19.10;;;9.00;;
57325;SDS011;43161;50.950;18.224;2023-04-28T01:41:00;20.20;;;9.50;;
57325;SDS011;43161;50.950;18.224;2023-04-28T01:43:27;21.10;;;9.00;;
57325;SDS011;43161;50.950;18.224;2023-04-28T01:45:53;20.00;;;8.70;;
57325;SDS011;43161;50.950;18.224;2023-04-28T01:48:18;20.10;;;9.40;;
57325;SDS011;43161;50.950;18.224;2023-04-28T01:50:44;23.20;;;9.40;;
57325;SDS011;43161;50.950;18.224;2023-04-28T01:53:10;17.90;;;8.70;;
57325;SDS011;43161;50.950;18.224;2023-04-28T01:55:36;18.60;;;8.90;;
57325;SDS011;43161;50.950;18.224;2023-04-28T01:58:02;20.80;;;8.60;;
57325;SDS011;43161;50.950;18.224;2023-04-28T02:00:28;21.00;;;8.90;;
57325;SDS011;43161;50.950;18.224;2023-04-28T02:02:54;18.60;;;8.30;;
57325;SDS011;43161;50.950;18.224;2023-04-28T02:05:20;23.20;;;8.90;;
57325;SDS011;43161;50.950;18.224;2023-04-28T02:07:46;20.50;;;8.00;;
57325;SDS011;43161;50.950;18.224;2023-04-28T02:10:12;16.30;;;8.50;;
57325;SDS011;43161;50.950;18.224;2023-04-28T02:12:38;17.50;;;7.90;;
57325;SDS011;43161;50.950;18.224;2023-04-28T02:15:06;19.40;;;8.30;;
57325;SDS011;43161;50.950;18.224;2023-04-28T02:17:33;20.40;;;8.80;;
57325;SDS011;43161;50.950;18.224;2023-04-28T02:19:59;21.60;;;9.70;;
57325;SDS011;43161;50.950;18.224;2023-04-28T02:22:25;21.00;;;9.00;;
57325;SDS011;43161;50.950;18.224;2023-04-28T02:24:51;19.70;;;8.40;;
57325;SDS011;43161;50.950;18.224;2023-04-28T02:27:16;21.60;;;9.50;;
57325;SDS011;43161;50.950;18.224;2023-04-28T02:29:43;22.30;;;11.30;;
57325;SDS011;43161;50.950;18.224;2023-04-28T02:32:08;24.90;;;11.60;;
57325;SDS011;43161;50.950;18.224;2023-04-28T02:34:34;19.80;;;9.30;;
57325;SDS011;43161;50.950;18.224;2023-04-28T02:37:00;19.60;;;9.20;;
57325;SDS011;43161;50.950;18.224;2023-04-28T02:39:25;17.70;;;9.00;;
57325;SDS011;43161;50.950;18.224;2023-04-28T02:41:52;22.40;;;10.50;;
57325;SDS011;43161;50.950;18.224;2023-04-28T02:44:18;22.40;;;10.10;;
57325;SDS011;43161;50.950;18.224;2023-04-28T02:46:45;17.40;;;9.00;;
57325;SDS011;43161;50.950;18.224;2023-04-28T02:49:10;18.30;;;8.00;;
57325;SDS011;43161;50.950;18.224;2023-04-28T02:51:36;21.00;;;8.20;;
57325;SDS011;43161;50.950;18.224;2023-04-28T02:54:02;19.00;;;8.20;;
57325;SDS011;43161;50.950;18.224;2023-04-28T02:56:28;15.90;;;7.50;;
57325;SDS011;43161;50.950;18.224;2023-04-28T02:58:55;17.10;;;7.30;;
57325;SDS011;43161;50.950;18.224;2023-04-28T03:01:21;19.30;;;8.10;;
57325;SDS011;43161;50.950;18.224;2023-04-28T03:03:47;20.30;;;8.20;;
57325;SDS011;43161;50.950;18.224;2023-04-28T03:06:13;17.50;;;8.20;;
57325;SDS011;43161;50.950;18.224;2023-04-28T03:08:39;17.00;;;7.60;;
57325;SDS011;43161;50.950;18.224;2023-04-28T03:11:05;17.80;;;7.90;;
57325;SDS011;43161;50.950;18.224;2023-04-28T03:13:31;19.30;;;8.30;;
57325;SDS011;43161;50.950;18.224;2023-04-28T03:15:57;16.90;;;7.50;;
57325;SDS011;43161;50.950;18.224;2023-04-28T03:18:23;16.50;;;7.20;;
57325;SDS011;43161;50.950;18.224;2023-04-28T03:20:48;18.90;;;8.50;;
57325;SDS011;43161;50.950;18.224;2023-04-28T03:23:14;18.10;;;8.30;;
57325;SDS011;43161;50.950;18.224;2023-04-28T03:25:40;20.90;;;9.80;;
57325;SDS011;43161;50.950;18.224;2023-04-28T03:28:06;23.90;;;10.30;;
57325;SDS011;43161;50.950;18.224;2023-04-28T03:30:32;22.90;;;11.50;;
57325;SDS011;43161;50.950;18.224;2023-04-28T03:32:58;22.60;;;10.30;;
57325;SDS011;43161;50.950;18.224;2023-04-28T03:35:23;20.80;;;10.30;;
57325;SDS011;43161;50.950;18.224;2023-04-28T03:37:49;22.10;;;10.90;;
57325;SDS011;43161;50.950;18.224;2023-04-28T03:40:14;22.20;;;10.00;;
57325;SDS011;43161;50.950;18.224;2023-04-28T03:42:40;21.00;;;9.80;;
57325;SDS011;43161;50.950;18.224;2023-04-28T03:45:07;23.50;;;10.60;;
57325;SDS011;43161;50.950;18.224;2023-04-28T03:47:33;23.00;;;9.80;;
57325;SDS011;43161;50.950;18.224;2023-04-28T03:49:59;22.80;;;10.50;;
57325;SDS011;43161;50.950;18.224;2023-04-28T03:52:25;22.50;;;10.80;;
57325;SDS011;43161;50.950;18.224;2023-04-28T03:54:51;22.50;;;10.10;;
57325;SDS011;43161;50.950;18.224;2023-04-28T03:57:17;19.50;;;9.00;;
57325;SDS011;43161;50.950;18.224;2023-04-28T03:59:42;23.20;;;9.60;;
57325;SDS011;43161;50.950;18.224;2023-04-28T04:02:08;18.70;;;9.10;;
57325;SDS011;43161;50.950;18.224;2023-04-28T04:04:34;19.90;;;9.90;;
57325;SDS011;43161;50.950;18.224;2023-04-28T04:06:59;19.80;;;8.80;;
57325;SDS011;43161;50.950;18.224;2023-04-28T04:09:25;21.00;;;9.90;;
57325;SDS011;43161;50.950;18.224;2023-04-28T04:11:51;22.30;;;10.30;;
57325;SDS011;43161;50.950;18.224;2023-04-28T04:14:17;25.40;;;11.40;;
57325;SDS011;43161;50.950;18.224;2023-04-28T04:16:43;25.20;;;12.20;;
57325;SDS011;43161;50.950;18.224;2023-04-28T04:19:08;25.40;;;10.80;;
57325;SDS011;43161;50.950;18.224;2023-04-28T04:21:34;21.10;;;10.50;;
57325;SDS011;43161;50.950;18.224;2023-04-28T04:23:59;22.30;;;12.10;;
57325;SDS011;43161;50.950;18.224;2023-04-28T04:26:25;25.30;;;12.40;;
57325;SDS011;43161;50.950;18.224;2023-04-28T04:28:51;25.80;;;12.80;;
57325;SDS011;43161;50.950;18.224;2023-04-28T04:31:17;27.30;;;13.30;;
57325;SDS011;43161;50.950;18.224;2023-04-28T04:33:44;27.30;;;12.20;;
57325;SDS011;43161;50.950;18.224;2023-04-28T04:36:10;30.30;;;14.40;;
57325;SDS011;43161;50.950;18.224;2023-04-28T04:38:35;26.40;;;12.80;;
57325;SDS011;43161;50.950;18.224;2023-04-28T04:41:01;25.80;;;13.00;;
57325;SDS011;43161;50.950;18.224;2023-04-28T04:43:27;29.80;;;14.20;;
57325;SDS011;43161;50.950;18.224;2023-04-28T04:45:52;27.00;;;13.20;;
57325;SDS011;43161;50.950;18.224;2023-04-28T04:48:18;27.90;;;13.30;;
57325;SDS011;43161;50.950;18.224;2023-04-28T04:50:44;29.60;;;14.80;;
57325;SDS011;43161;50.950;18.224;2023-04-28T04:53:11;27.40;;;13.70;;
57325;SDS011;43161;50.950;18.224;2023-04-28T04:55:37;32.20;;;14.60;;
57325;SDS011;43161;50.950;18.224;2023-04-28T04:58:02;27.80;;;12.20;;
57325;SDS011;43161;50.950;18.224;2023-04-28T05:00:28;27.70;;;13.70;;
57325;SDS011;43161;50.950;18.224;2023-04-28T05:02:54;29.80;;;13.80;;
57325;SDS011;43161;50.950;18.224;2023-04-28T05:05:20;29.00;;;14.20;;
57325;SDS011;43161;50.950;18.224;2023-04-28T05:07:46;30.60;;;14.40;;
57325;SDS011;43161;50.950;18.224;2023-04-28T05:10:12;29.80;;;13.50;;
57325;SDS011;43161;50.950;18.224;2023-04-28T05:12:38;28.60;;;13.50;;
57325;SDS011;43161;50.950;18.224;2023-04-28T05:15:05;31.80;;;14.30;;
57325;SDS011;43161;50.950;18.224;2023-04-28T05:17:32;31.70;;;14.50;;
57325;SDS011;43161;50.950;18.224;2023-04-28T05:19:59;32.00;;;15.00;;
57325;SDS011;43161;50.950;18.224;2023-04-28T05:22:24;32.60;;;16.50;;
57325;SDS011;43161;50.950;18.224;2023-04-28T05:24:51;32.70;;;15.10;;
57325;SDS011;43161;50.950;18.224;2023-04-28T05:27:17;28.90;;;14.40;;
57325;SDS011;43161;50.950;18.224;2023-04-28T05:29:43;36.50;;;16.70;;
57325;SDS011;43161;50.950;18.224;2023-04-28T05:32:09;33.20;;;16.30;;
57325;SDS011;43161;50.950;18.224;2023-04-28T05:34:35;29.40;;;15.10;;
57325;SDS011;43161;50.950;18.224;2023-04-28T05:37:00;33.80;;;15.40;;
57325;SDS011;43161;50.950;18.224;2023-04-28T05:39:26;33.70;;;15.30;;
57325;SDS011;43161;50.950;18.224;2023-04-28T05:41:52;30.00;;;15.50;;
57325;SDS011;43161;50.950;18.224;2023-04-28T05:44:18;32.60;;;15.70;;
57325;SDS011;43161;50.950;18.224;2023-04-28T05:46:43;32.80;;;15.80;;
57325;SDS011;43161;50.950;18.224;2023-04-28T05:49:09;30.60;;;14.80;;
57325;SDS011;43161;50.950;18.224;2023-04-28T05:51:35;28.30;;;15.50;;
57325;SDS011;43161;50.950;18.224;2023-04-28T05:54:01;29.70;;;14.80;;
57325;SDS011;43161;50.950;18.224;2023-04-28T05:56:27;32.60;;;15.30;;
57325;SDS011;43161;50.950;18.224;2023-04-28T05:58:53;30.90;;;15.70;;
57325;SDS011;43161;50.950;18.224;2023-04-28T06:01:19;31.30;;;16.20;;
57325;SDS011;43161;50.950;18.224;2023-04-28T06:03:46;31.90;;;16.40;;
57325;SDS011;43161;50.950;18.224;2023-04-28T06:06:12;29.40;;;14.40;;
57325;SDS011;43161;50.950;18.224;2023-04-28T06:08:38;28.00;;;14.50;;
57325;SDS011;43161;50.950;18.224;2023-04-28T06:11:04;32.20;;;14.80;;
57325;SDS011;43161;50.950;18.224;2023-04-28T06:13:31;39.50;;;16.30;;
57325;SDS011;43161;50.950;18.224;2023-04-28T06:15:57;30.00;;;14.50;;
57325;SDS011;43161;50.950;18.224;2023-04-28T06:18:22;30.90;;;15.00;;
57325;SDS011;43161;50.950;18.224;2023-04-28T06:20:48;28.90;;;14.80;;
57325;SDS011;43161;50.950;18.224;2023-04-28T06:23:14;31.70;;;14.90;;
57325;SDS011;43161;50.950;18.224;2023-04-28T06:25:40;26.10;;;14.60;;
57325;SDS011;43161;50.950;18.224;2023-04-28T06:28:06;25.70;;;11.70;;
57325;SDS011;43161;50.950;18.224;2023-04-28T06:30:32;23.70;;;11.30;;
57325;SDS011;43161;50.950;18.224;2023-04-28T06:32:59;24.10;;;11.40;;
57325;SDS011;43161;50.950;18.224;2023-04-28T06:35:25;23.40;;;11.30;;
57325;SDS011;43161;50.950;18.224;2023-04-28T06:37:51;28.90;;;11.50;;
57325;SDS011;43161;50.950;18.224;2023-04-28T06:40:17;26.40;;;12.40;;
57325;SDS011;43161;50.950;18.224;2023-04-28T06:42:43;25.10;;;12.80;;
57325;SDS011;43161;50.950;18.224;2023-04-28T06:45:08;23.80;;;11.10;;
57325;SDS011;43161;50.950;18.224;2023-04-28T06:47:34;23.10;;;12.40;;
57325;SDS011;43161;50.950;18.224;2023-04-28T06:50:01;22.90;;;12.00;;
57325;SDS011;43161;50.950;18.224;2023-04-28T06:52:27;23.20;;;11.60;;
57325;SDS011;43161;50.950;18.224;2023-04-28T06:54:54;24.70;;;12.60;;
57325;SDS011;43161;50.950;18.224;2023-04-28T06:57:20;23.30;;;11.60;;
57325;SDS011;43161;50.950;18.224;2023-04-28T06:59:46;26.50;;;12.30;;
57325;SDS011;43161;50.950;18.224;2023-04-28T07:02:12;26.70;;;12.50;;
57325;SDS011;43161;50.950;18.224;2023-04-28T07:04:38;23.90;;;12.00;;
57325;SDS011;43161;50.950;18.224;2023-04-28T07:07:03;24.30;;;11.70;;
57325;SDS011;43161;50.950;18.224;2023-04-28T07:09:35;22.20;;;11.70;;
57325;SDS011;43161;50.950;18.224;2023-04-28T07:12:01;26.10;;;11.30;;
57325;SDS011;43161;50.950;18.224;2023-04-28T07:14:28;26.40;;;12.30;;
57325;SDS011;43161;50.950;18.224;2023-04-28T07:16:54;22.70;;;10.90;;
57325;SDS011;43161;50.950;18.224;2023-04-28T07:19:21;23.80;;;12.20;;
57325;SDS011;43161;50.950;18.224;2023-04-28T07:21:46;22.30;;;11.20;;
57325;SDS011;43161;50.950;18.224;2023-04-28T07:24:12;24.00;;;11.20;;
57325;SDS011;43161;50.950;18.224;2023-04-28T07:26:38;21.60;;;11.00;;
57325;SDS011;43161;50.950;18.224;2023-04-28T07:29:04;26.50;;;11.90;;
57325;SDS011;43161;50.950;18.224;2023-04-28T07:31:29;24.40;;;12.00;;
57325;SDS011;43161;50.950;18.224;2023-04-28T07:33:55;22.80;;;11.40;;
57325;SDS011;43161;50.950;18.224;2023-04-28T07:36:21;23.40;;;10.80;;
57325;SDS011;43161;50.950;18.224;2023-04-28T07:38:47;24.50;;;11.50;;
57325;SDS011;43161;50.950;18.224;2023-04-28T07:41:12;22.50;;;10.40;;
57325;SDS011;43161;50.950;18.224;2023-04-28T07:43:38;21.10;;;10.20;;
57325;SDS011;43161;50.950;18.224;2023-04-28T07:46:05;21.30;;;10.30;;
57325;SDS011;43161;50.950;18.224;2023-04-28T07:48:33;22.90;;;10.30;;
57325;SDS011;43161;50.950;18.224;2023-04-28T07:51:00;20.80;;;9.40;;
57325;SDS011;43161;50.950;18.224;2023-04-28T07:53:25;19.90;;;9.60;;
57325;SDS011;43161;50.950;18.224;2023-04-28T07:55:51;20.30;;;10.40;;
57325;SDS011;43161;50.950;18.224;2023-04-28T07:58:17;17.20;;;9.00;;
57325;SDS011;43161;50.950;18.224;2023-04-28T08:00:43;18.40;;;9.10;;
57325;SDS011;43161;50.950;18.224;2023-04-28T08:03:09;19.20;;;9.00;;
57325;SDS011;43161;50.950;18.224;2023-04-28T08:05:35;20.50;;;9.10;;
57325;SDS011;43161;50.950;18.224;2023-04-28T08:08:00;20.30;;;9.10;;
57325;SDS011;43161;50.950;18.224;2023-04-28T08:10:27;24.40;;;10.40;;
57325;SDS011;43161;50.950;18.224;2023-04-28T08:12:53;23.60;;;10.70;;
57325;SDS011;43161;50.950;18.224;2023-04-28T08:15:19;20.80;;;9.30;;
57325;SDS011;43161;50.950;18.224;2023-04-28T08:17:45;21.60;;;8.70;;
57325;SDS011;43161;50.950;18.224;2023-04-28T08:20:11;19.20;;;9.20;;
57325;SDS011;43161;50.950;18.224;2023-04-28T08:22:39;18.50;;;8.30;;
57325;SDS011;43161;50.950;18.224;2023-04-28T08:25:06;18.40;;;8.00;;
57325;SDS011;43161;50.950;18.224;2023-04-28T08:27:32;19.10;;;8.10;;
57325;SDS011;43161;50.950;18.224;2023-04-28T08:29:58;18.00;;;8.00;;
57325;SDS011;43161;50.950;18.224;2023-04-28T08:32:24;18.70;;;7.90;;
57325;SDS011;43161;50.950;18.224;2023-04-28T08:34:50;16.40;;;7.80;;
57325;SDS011;43161;50.950;18.224;2023-04-28T08:37:15;15.80;;;7.40;;
57325;SDS011;43161;50.950;18.224;2023-04-28T08:39:41;20.80;;;7.40;;
57325;SDS011;43161;50.950;18.224;2023-04-28T08:42:08;15.70;;;7.00;;
57325;SDS011;43161;50.950;18.224;2023-04-28T08:44:37;16.90;;;7.00;;
57325;SDS011;43161;50.950;18.224;2023-04-28T08:47:10;15.70;;;7.30;;
57325;SDS011;43161;50.950;18.224;2023-04-28T08:49:37;17.70;;;7.10;;
57325;SDS011;43161;50.950;18.224;2023-04-28T08:52:07;16.90;;;7.20;;
57325;SDS011;43161;50.950;18.224;2023-04-28T08:54:35;16.30;;;7.80;;
57325;SDS011;43161;50.950;18.224;2023-04-28T08:57:02;18.90;;;7.90;;
57325;SDS011;43161;50.950;18.224;2023-04-28T08:59:29;15.50;;;7.90;;
57325;SDS011;43161;50.950;18.224;2023-04-28T09:01:55;18.20;;;7.80;;
57325;SDS011;43161;50.950;18.224;2023-04-28T09:04:21;18.50;;;7.80;;
57325;SDS011;43161;50.950;18.224;2023-04-28T09:06:47;15.50;;;6.10;;
57325;SDS011;43161;50.950;18.224;2023-04-28T09:11:56;16.90;;;7.30;;
57325;SDS011;43161;50.950;18.224;2023-04-28T09:14:24;17.10;;;7.60;;
57325;SDS011;43161;50.950;18.224;2023-04-28T09:16:51;16.30;;;7.40;;
57325;SDS011;43161;50.950;18.224;2023-04-28T09:19:17;14.90;;;5.40;;
57325;SDS011;43161;50.950;18.224;2023-04-28T09:26:56;14.60;;;5.60;;
57325;SDS011;43161;50.950;18.224;2023-04-28T09:29:22;14.00;;;5.80;;
57325;SDS011;43161;50.950;18.224;2023-04-28T09:31:48;13.10;;;5.10;;
57325;SDS011;43161;50.950;18.224;2023-04-28T09:34:14;13.70;;;5.50;;
57325;SDS011;43161;50.950;18.224;2023-04-28T09:36:40;14.80;;;6.00;;
57325;SDS011;43161;50.950;18.224;2023-04-28T09:39:06;14.00;;;5.30;;
57325;SDS011;43161;50.950;18.224;2023-04-28T09:46:47;13.80;;;5.20;;
57325;SDS011;43161;50.950;18.224;2023-04-28T09:49:13;14.40;;;5.50;;
57325;SDS011;43161;50.950;18.224;2023-04-28T09:51:40;12.70;;;5.40;;
57325;SDS011;43161;50.950;18.224;2023-04-28T09:54:05;14.10;;;6.20;;
57325;SDS011;43161;50.950;18.224;2023-04-28T09:56:33;14.80;;;5.10;;
57325;SDS011;43161;50.950;18.224;2023-04-28T09:59:03;14.70;;;5.10;;
57325;SDS011;43161;50.950;18.224;2023-04-28T10:01:33;16.00;;;4.60;;
57325;SDS011;43161;50.950;18.224;2023-04-28T10:04:04;12.70;;;5.00;;
57325;SDS011;43161;50.950;18.224;2023-04-28T10:06:34;13.30;;;5.00;;
57325;SDS011;43161;50.950;18.224;2023-04-28T10:09:04;14.00;;;5.50;;
57325;SDS011;43161;50.950;18.224;2023-04-28T10:11:30;13.90;;;6.40;;
57325;SDS011;43161;50.950;18.224;2023-04-28T10:13:57;16.90;;;6.90;;
57325;SDS011;43161;50.950;18.224;2023-04-28T10:16:23;13.10;;;5.90;;
57325;SDS011;43161;50.950;18.224;2023-04-28T10:18:50;15.00;;;5.90;;
57325;SDS011;43161;50.950;18.224;2023-04-28T10:21:17;14.50;;;6.40;;
57325;SDS011;43161;50.950;18.224;2023-04-28T10:29:24;14.30;;;6.90;;
57325;SDS011;43161;50.950;18.224;2023-04-28T10:34:50;13.70;;;5.90;;
57325;SDS011;43161;50.950;18.224;2023-04-28T10:37:16;16.80;;;6.80;;
57325;SDS011;43161;50.950;18.224;2023-04-28T10:48:20;15.30;;;5.60;;
57325;SDS011;43161;50.950;18.224;2023-04-28T10:56:16;13.00;;;5.30;;
57325;SDS011;43161;50.950;18.224;2023-04-28T10:58:55;15.20;;;4.90;;
57325;SDS011;43161;50.950;18.224;2023-04-28T11:01:24;12.10;;;5.10;;
57325;SDS011;43161;50.950;18.224;2023-04-28T11:06:31;12.90;;;4.50;;
57325;SDS011;43161;50.950;18.224;2023-04-28T11:09:03;12.70;;;4.40;;
57325;SDS011;43161;50.950;18.224;2023-04-28T11:14:32;12.50;;;4.30;;
57325;SDS011;43161;50.950;18.224;2023-04-28T11:22:00;12.00;;;3.40;;
57325;SDS011;43161;50.950;18.224;2023-04-28T11:24:27;11.80;;;3.60;;
57325;SDS011;43161;50.950;18.224;2023-04-28T11:26:54;11.40;;;4.00;;
57325;SDS011;43161;50.950;18.224;2023-04-28T11:32:05;11.00;;;3.70;;
57325;SDS011;43161;50.950;18.224;2023-04-28T11:34:32;11.70;;;3.60;;
57325;SDS011;43161;50.950;18.224;2023-04-28T11:36:58;10.10;;;3.50;;
57325;SDS011;43161;50.950;18.224;2023-04-28T11:39:25;9.50;;;3.10;;
57325;SDS011;43161;50.950;18.224;2023-04-28T11:41:55;12.60;;;4.10;;
57325;SDS011;43161;50.950;18.224;2023-04-28T11:44:22;11.70;;;3.90;;
57325;SDS011;43161;50.950;18.224;2023-04-28T11:46:52;15.80;;;4.00;;
57325;SDS011;43161;50.950;18.224;2023-04-28T11:49:45;11.40;;;3.60;;
57325;SDS011;43161;50.950;18.224;2023-04-28T11:52:11;14.80;;;4.40;;
57325;SDS011;43161;50.950;18.224;2023-04-28T11:54:38;9.90;;;3.30;;
57325;SDS011;43161;50.950;18.224;2023-04-28T11:57:06;13.40;;;3.30;;
57325;SDS011;43161;50.950;18.224;2023-04-28T11:59:41;14.90;;;3.90;;
57325;SDS011;43161;50.950;18.224;2023-04-28T12:02:07;14.20;;;3.00;;
57325;SDS011;43161;50.950;18.224;2023-04-28T12:04:38;13.20;;;3.90;;
57325;SDS011;43161;50.950;18.224;2023-04-28T12:07:06;11.40;;;3.60;;
57325;SDS011;43161;50.950;18.224;2023-04-28T12:09:40;12.30;;;3.80;;
57325;SDS011;43161;50.950;18.224;2023-04-28T12:12:07;12.10;;;3.20;;
57325;SDS011;43161;50.950;18.224;2023-04-28T12:17:24;13.90;;;5.20;;
57325;SDS011;43161;50.950;18.224;2023-04-28T12:19:58;15.00;;;6.20;;
57325;SDS011;43161;50.950;18.224;2023-04-28T12:22:25;12.40;;;4.00;;
57325;SDS011;43161;50.950;18.224;2023-04-28T12:27:34;11.70;;;3.80;;
57325;SDS011;43161;50.950;18.224;2023-04-28T12:30:03;11.50;;;3.60;;
57325;SDS011;43161;50.950;18.224;2023-04-28T12:32:49;9.70;;;3.30;;
57325;SDS011;43161;50.950;18.224;2023-04-28T12:35:16;15.40;;;4.10;;
57325;SDS011;43161;50.950;18.224;2023-04-28T12:37:42;12.30;;;3.50;;
57325;SDS011;43161;50.950;18.224;2023-04-28T12:40:08;11.10;;;3.80;;
57325;SDS011;43161;50.950;18.224;2023-04-28T12:42:34;12.20;;;3.60;;
57325;SDS011;43161;50.950;18.224;2023-04-28T12:45:00;11.50;;;3.70;;
57325;SDS011;43161;50.950;18.224;2023-04-28T12:47:26;12.50;;;3.90;;
57325;SDS011;43161;50.950;18.224;2023-04-28T12:49:52;11.80;;;3.50;;
57325;SDS011;43161;50.950;18.224;2023-04-28T12:52:18;12.10;;;3.30;;
57325;SDS011;43161;50.950;18.224;2023-04-28T12:54:45;11.30;;;4.00;;
57325;SDS011;43161;50.950;18.224;2023-04-28T12:57:17;10.30;;;4.10;;
57325;SDS011;43161;50.950;18.224;2023-04-28T12:59:44;11.70;;;3.80;;
57325;SDS011;43161;50.950;18.224;2023-04-28T13:02:11;14.50;;;4.40;;
57325;SDS011;43161;50.950;18.224;2023-04-28T13:04:39;11.50;;;4.10;;
57325;SDS011;43161;50.950;18.224;2023-04-28T13:07:07;13.60;;;3.90;;
57325;SDS011;43161;50.950;18.224;2023-04-28T13:09:33;13.20;;;3.70;;
57325;SDS011;43161;50.950;18.224;2023-04-28T13:11:59;10.60;;;3.40;;
57325;SDS011;43161;50.950;18.224;2023-04-28T13:14:27;12.70;;;3.20;;
57325;SDS011;43161;50.950;18.224;2023-04-28T13:16:53;10.60;;;3.40;;
57325;SDS011;43161;50.950;18.224;2023-04-28T13:19:19;8.50;;;3.00;;
57325;SDS011;43161;50.950;18.224;2023-04-28T13:21:45;9.40;;;3.40;;
57325;SDS011;43161;50.950;18.224;2023-04-28T13:24:14;9.70;;;3.30;;
57325;SDS011;43161;50.950;18.224;2023-04-28T13:26:40;9.90;;;3.20;;
57325;SDS011;43161;50.950;18.224;2023-04-28T13:29:08;9.80;;;3.20;;
57325;SDS011;43161;50.950;18.224;2023-04-28T13:31:34;8.90;;;3.30;;
57325;SDS011;43161;50.950;18.224;2023-04-28T13:33:59;11.80;;;3.60;;
57325;SDS011;43161;50.950;18.224;2023-04-28T13:36:26;9.90;;;3.70;;
57325;SDS011;43161;50.950;18.224;2023-04-28T13:38:57;9.80;;;3.30;;
57325;SDS011;43161;50.950;18.224;2023-04-28T13:41:23;12.30;;;3.60;;
57325;SDS011;43161;50.950;18.224;2023-04-28T13:43:49;12.70;;;3.20;;
57325;SDS011;43161;50.950;18.224;2023-04-28T13:46:15;10.80;;;3.90;;
57325;SDS011;43161;50.950;18.224;2023-04-28T13:48:41;9.30;;;2.90;;
57325;SDS011;43161;50.950;18.224;2023-04-28T13:51:07;8.30;;;2.40;;
57325;SDS011;43161;50.950;18.224;2023-04-28T13:53:33;11.20;;;2.90;;
57325;SDS011;43161;50.950;18.224;2023-04-28T13:56:00;12.00;;;4.10;;
57325;SDS011;43161;50.950;18.224;2023-04-28T13:58:27;12.80;;;4.00;;
57325;SDS011;43161;50.950;18.224;2023-04-28T14:00:53;10.40;;;3.50;;
57325;SDS011;43161;50.950;18.224;2023-04-28T14:03:20;9.90;;;3.30;;
57325;SDS011;43161;50.950;18.224;2023-04-28T14:05:47;12.00;;;3.40;;
57325;SDS011;43161;50.950;18.224;2023-04-28T14:08:14;11.70;;;3.50;;
57325;SDS011;43161;50.950;18.224;2023-04-28T14:10:40;10.70;;;3.50;;
57325;SDS011;43161;50.950;18.224;2023-04-28T14:13:06;10.90;;;3.30;;
57325;SDS011;43161;50.950;18.224;2023-04-28T14:15:32;11.10;;;3.40;;
57325;SDS011;43161;50.950;18.224;2023-04-28T14:17:58;11.40;;;3.10;;
57325;SDS011;43161;50.950;18.224;2023-04-28T14:20:24;10.20;;;3.00;;
57325;SDS011;43161;50.950;18.224;2023-04-28T14:22:50;7.40;;;2.60;;
57325;SDS011;43161;50.950;18.224;2023-04-28T14:25:16;8.10;;;2.60;;
57325;SDS011;43161;50.950;18.224;2023-04-28T14:27:43;8.40;;;2.80;;
57325;SDS011;43161;50.950;18.224;2023-04-28T14:30:09;9.90;;;2.80;;
57325;SDS011;43161;50.950;18.224;2023-04-28T14:32:35;8.20;;;2.70;;
57325;SDS011;43161;50.950;18.224;2023-04-28T14:35:02;10.30;;;3.30;;
57325;SDS011;43161;50.950;18.224;2023-04-28T14:37:33;10.20;;;2.80;;
57325;SDS011;43161;50.950;18.224;2023-04-28T14:39:59;13.30;;;2.80;;
57325;SDS011;43161;50.950;18.224;2023-04-28T14:42:29;13.70;;;3.20;;
57325;SDS011;43161;50.950;18.224;2023-04-28T14:45:00;9.80;;;2.90;;
57325;SDS011;43161;50.950;18.224;2023-04-28T14:47:27;9.10;;;2.80;;
57325;SDS011;43161;50.950;18.224;2023-04-28T14:49:53;11.70;;;4.20;;
57325;SDS011;43161;50.950;18.224;2023-04-28T14:52:19;14.50;;;3.20;;
57325;SDS011;43161;50.950;18.224;2023-04-28T14:54:47;8.80;;;2.90;;
57325;SDS011;43161;50.950;18.224;2023-04-28T14:57:13;10.20;;;3.00;;
57325;SDS011;43161;50.950;18.224;2023-04-28T14:59:39;10.50;;;3.90;;
57325;SDS011;43161;50.950;18.224;2023-04-28T15:02:06;10.00;;;2.60;;
57325;SDS011;43161;50.950;18.224;2023-04-28T15:04:32;11.80;;;3.30;;
57325;SDS011;43161;50.950;18.224;2023-04-28T15:06:58;10.30;;;3.20;;
57325;SDS011;43161;50.950;18.224;2023-04-28T15:09:25;13.50;;;3.60;;
57325;SDS011;43161;50.950;18.224;2023-04-28T15:11:53;15.30;;;7.20;;